Steptoe Valley WMA, Nevada Weather observations

Data are for 10 minute period ending at time listed.
 Day   Time   Solar   Ave.   Ave.  Ave.  Vector  Max.   Baro.   Total    
  of    of     Rad.   Air    Rel.  Wind   Wind   Wind  Press.  Precip.   
Year   Day            Temp.  Hum.  Speed  Dir.   Gust                    
2016   (PST)  Kw/m2    F      %     mph   deg.    mph    mb.     in.     
-------------------------------------------------------------------------
 339    1:00   0.00    7.6    86    4.3   170     6.2   806.1    0.00 
 339    1:10   0.00    7.6    86    3.2   171     4.9   806.2    0.00 
 339    1:20   0.00    7.7    85    3.4   188     4.5   806.3    0.00 
 339    1:30   0.00    6.6    84    3.4   177     5.5   806.2    0.00 
 339    1:40   0.00    6.4    85    3.7   180     5.3   806.2    0.00 
 339    1:50   0.00    7.4    86    4.4   189     7.0   806.0    0.00 
 339    2:00   0.00    7.4    86    3.4   182     5.3   805.9    0.00 
 339    2:10   0.00    8.6    86    3.9   173     6.2   805.9    0.00 
 339    2:20   0.00    8.3    85    4.4   177     6.9   805.8    0.00 
 339    2:30   0.00    8.1    85    3.1   173     4.9   805.6    0.00 
 339    2:40   0.00    7.9    85    2.6   178     5.1   805.5    0.00 
 339    2:50   0.00    6.9    84    4.6   195     6.1   805.3    0.00 
 339    3:00   0.00    5.9    84    4.4   175     6.8   805.3    0.00 
 339    3:10   0.00    5.3    85    4.2   183     6.5   805.3    0.00 
 339    3:20   0.00    5.8    86    2.3   161     4.7   805.3    0.00 
 339    3:30   0.00    6.0    85    2.7   183     4.4   805.3    0.00 
 339    3:40   0.00    5.1    84    3.0   153     4.6   805.2    0.00 
 339    3:50   0.00    5.1    85    3.5   171     6.1   805.2    0.00 
 339    4:00   0.00    5.0    85    4.5   175     7.6   805.0    0.00 
 339    4:10   0.00    7.1    86    4.5   170     7.2   805.0    0.00 
 339    4:20   0.00    9.3    86    3.6   180     5.2   804.9    0.00 
 339    4:30   0.00   11.0    84    3.3   156     5.5   804.8    0.00 
 339    4:40   0.00   10.3    79    1.5   173     3.4   804.7    0.00 
 339    4:50   0.00    8.0    81    3.1   186     5.0   804.6    0.00 
 339    5:00   0.00    7.5    83    3.2   179     4.5   804.6    0.00 
 339    5:10   0.00    6.0    82    2.4   176     4.7   804.6    0.00 
 339    5:20   0.00    6.5    84    4.3   191     7.2   804.7    0.00 
 339    5:30   0.00    6.7    83    4.4   179     6.9   804.8    0.00 
 339    5:40   0.00    5.6    82    5.1   176     7.2   804.8    0.00 
 339    5:50   0.00    5.1    83    4.7   161     7.2   804.9    0.00 
 339    6:00   0.00    5.4    83    4.5   162     6.6   804.9    0.00 
 339    6:10   0.00    7.0    83    2.8   171     6.4   804.9    0.00 
 339    6:20   0.00    7.3    83    3.8   169     6.9   804.9    0.00 
 339    6:30   0.00    7.2    82    4.7   186     6.4   804.9    0.00 
 339    6:40   0.00    7.8    83    3.7   174     6.1   804.9    0.00 
 339    6:50   0.00    9.7    82    5.0   172     7.3   804.7    0.00 
 339    7:00   0.01   11.8    79    5.4   177     8.4   804.8    0.00 
 339    7:10   0.01   12.6    73    6.0   169     8.6   804.9    0.00 
 339    7:20   0.02   10.7    76    5.4   178     7.5   804.8    0.00 
 339    7:30   0.02    9.6    78    4.8   175     6.8   804.8    0.00 
 339    7:40   0.05    9.1    80    4.9   180     7.9   804.7    0.00 
 339    7:50   0.11   10.9    81    5.2   176     8.5   804.5    0.00 
 339    8:00   0.14   15.0    79    5.3   169     9.4   804.5    0.00 
 339    8:10   0.17   18.6    72    6.6   181     9.8   804.4    0.00 
 339    8:20   0.20   19.5    69    6.7   187     9.4   804.4    0.00 
 339    8:30   0.23   19.9    69    6.2   186     9.2   804.5    0.00 
 339    8:40   0.27   22.5    65    6.1   186     8.8   804.4    0.00 
 339    8:50   0.30   27.8    55    5.8   181     8.2   804.4    0.00 
 339    9:00   0.29   28.4    51    6.2   192     9.0   804.5    0.00 
 339    9:10   0.30   27.9    54    6.5   194     9.6   804.7    0.00 
 339    9:20   0.35   28.8    53    6.3   181     9.1   804.6    0.00 
 339    9:30   0.37   32.6    47    4.5   182     7.0   804.6    0.00 
 339    9:40   0.39   36.7    39    3.9   179     5.4   804.6    0.00 
 339    9:50   0.41   39.6    32    3.9   192     6.0   804.6    0.00 
 339   10:00   0.42   40.9    29    3.5   193     5.0   804.5    0.00 
 339   10:10   0.43   42.7    22    3.5   179     5.8   804.3    0.00 
 339   10:20   0.45   44.9    18    2.1   184     3.9   804.2    0.00 
 339   10:30   0.46   45.6    19    1.9   227     4.0   804.0    0.00 
 339   10:40   0.45   46.0    20    2.4   226     4.5   803.8    0.00 
 339   10:50   0.50   46.9    20    2.4   198     4.7   803.4    0.00 
 339   11:00   0.47   48.4    19    2.1   182     5.6   803.2    0.00 
 339   11:10   0.46   49.5    20    2.9   164     6.4   802.9    0.00 
 339   11:20   0.49   50.6    20    5.0   183     7.6   802.6    0.00 
 339   11:30   0.49   50.4    20    5.4   163     9.9   802.4    0.00 
 339   11:40   0.44   51.0    20    4.5   189     8.5   802.4    0.00 
 339   11:50   0.44   51.1    21    3.5   197     6.5   802.3    0.00 
 339   12:00   0.49   51.8    20    4.1   172     7.6   802.0    0.00 
 339   12:10   0.49   52.7    20    3.1   197     6.1   801.8    0.00 
 339   12:20   0.47   53.2    20    2.2   152     7.5   801.6    0.00 
 339   12:30   0.46   52.5    20    3.1   120     5.4   801.3    0.00 
 339   12:40   0.40   53.4    20    2.1    35     5.0   801.1    0.00 
 339   12:50   0.43   53.5    20    5.4   332     9.6   801.1    0.00 
 339   13:00   0.31   52.8    20    4.4   294     8.2   801.1    0.00 
 339   13:10   0.35   53.3    20    5.7   301     9.5   800.9    0.00 
 339   13:20   0.38   53.8    20    5.9   289     9.7   800.6    0.00 
 339   13:30   0.43   54.1    19    6.0   311    10.2   800.5    0.00 
 339   13:40   0.34   53.9    20    7.2   298    11.4   800.5    0.00 
 339   13:50   0.32   53.2    20    6.3   319     9.3   800.6    0.00 
 339   14:00   0.32   53.4    20    6.9   326    12.0   800.6    0.00 
 339   14:10   0.29   53.0    20    5.8   349    10.4   800.4    0.00 
 339   14:20   0.25   52.5    20    5.7   339    11.0   800.5    0.00 
 339   14:30   0.22   52.0    20    6.3   352    10.4   800.4    0.00 
 339   14:40   0.22   51.5    21    5.2   349     8.9   800.3    0.00 
 339   14:50   0.20   51.3    21    5.3   342     9.0   800.3    0.00 
 339   15:00   0.19   51.2    21    6.0   348     9.1   800.2    0.00 
 339   15:10   0.12   50.1    22    5.2     4     8.4   800.0    0.00 
 339   15:20   0.12   48.9    24    4.1   350     6.1   800.0    0.00 
 339   15:30   0.11   48.0    25    4.1   343     5.3   800.0    0.00 
 339   15:40   0.09   46.4    26    3.0   350     4.7   799.9    0.00 
 339   15:50   0.05   44.8    27    2.6   344     3.7   799.9    0.00 
 339   16:00   0.03   41.9    30    1.7     3     3.0   799.9    0.00 
 339   16:10   0.02   40.5    32    3.8    15     6.0   799.9    0.00 
 339   16:20   0.01   39.3    33    2.7     3     5.5   799.9    0.00 
 339   16:30   0.00   37.5    38    3.6    71     8.0   799.9    0.00 
 339   16:40   0.00   37.8    39    4.0   107     6.5   799.9    0.00 
 339   16:50   0.00   36.6    42    3.6   100     8.2   799.9    0.00 
 339   17:00   0.00   37.8    40    3.8    96     5.4   799.9    0.00 
 339   17:10   0.00   37.0    41    4.3   121     7.2   799.9    0.00 
 339   17:20   0.00   36.1    43    4.7   104     8.6   799.8    0.00 
 339   17:30   0.00   35.6    43    4.9   144    11.5   799.5    0.00 
 339   17:40   0.00   33.5    46    1.9   135     5.9   799.6    0.00 
 339   17:50   0.00   33.0    47    3.5   161     7.7   799.4    0.00 
 339   18:00   0.00   30.8    52    2.8   161     5.2   799.4    0.00 
 339   18:10   0.00   32.3    49    4.9   154     7.1   799.2    0.00 
 339   18:20   0.00   35.0    43    6.0   153    10.3   799.2    0.00 
 339   18:30   0.00   37.2    39    6.8   145    10.1   799.1    0.00 
 339   18:40   0.00   36.7    39    6.1   146    10.6   799.1    0.00 
 339   18:50   0.00   38.5    36    5.1   142     9.5   798.9    0.00 
 339   19:00   0.00   38.7    36    6.3   139     9.9   798.9    0.00 
 339   19:10   0.00   39.5    34    5.5   146     9.3   798.9    0.00 
 339   19:20   0.00   39.6    34    4.1   160     7.7   798.9    0.00 
 339   19:30   0.00   36.7    39    1.2   328     3.7   799.0    0.00 
 339   19:40   0.00   34.8    44    1.2   158     2.9   799.0    0.00 
 339   19:50   0.00   34.1    46    2.3   108     6.4   798.9    0.00 
 339   20:00   0.00   32.7    49    2.1   350     4.6   798.8    0.00 
 339   20:10   0.00   33.2    48    3.1    32     6.4   798.7    0.00 
 339   20:20   0.00   31.8    51    2.1    28     3.8   798.6    0.00 
 339   20:30   0.00   29.8    55    1.4   162     3.5   798.6    0.00 
 339   20:40   0.00   29.2    57    3.9    54     6.9   798.4    0.00 
 339   20:50   0.00   26.7    60    2.2     8     5.8   798.4    0.00 
 339   21:00   0.00   27.0    62    2.8   152     4.9   798.3    0.00 
 339   21:10   0.00   27.0    63    3.5   147     7.0   798.3    0.00 
 339   21:20   0.00   25.9    65    2.8   160     7.2   798.3    0.00 
 339   21:30   0.00   26.3    65    2.0   156     4.2   798.3    0.00 
 339   21:40   0.00   28.3    61    2.4   157     6.4   798.2    0.00 
 339   21:50   0.00   29.2    60    1.6   160     4.8   798.2    0.00 
 339   22:00   0.00   29.6    59    1.2   162     4.2   798.3    0.00 
 339   22:10   0.00   30.1    58    3.4   347     6.9   798.3    0.00 
 339   22:20   0.00   28.9    61    1.4    78     4.0   798.3    0.00 
 339   22:30   0.00   29.0    62    2.8   152     7.5   798.3    0.00 
 339   22:40   0.00   30.2    59    3.4   184     7.9   798.3    0.00 
 339   22:50   0.00   28.9    61    2.4   102     4.7   798.3    0.00 
 339   23:00   0.00   28.3    63    2.1   143     4.7   798.3    0.00 
 339   23:10   0.00   29.1    61    2.4   132     4.6   798.2    0.00 
 339   23:20   0.00   29.3    60    2.4   136     5.3   798.0    0.00 
 339   23:30   0.00   29.7    60    4.0   114     6.5   797.7    0.00 
 339   23:40   0.00   29.2    60    3.5   152     6.6   797.6    0.00 
 339   23:50   0.00   27.4    63    2.8   185     5.7   797.5    0.00 
 340    0:00   0.00   26.9    63    1.6   196     3.8   797.6    0.00 
 340    0:10   0.00   26.5    64    1.4   134     2.7   797.8    0.00 
 340    0:20   0.00   28.3    60    1.5   168     3.2   797.8    0.00 
 340    0:30   0.00   28.6    59    2.9   159     7.2   797.6    0.00 
 340    0:40   0.00   27.9    61    3.0   146     6.7   797.5    0.00 
 340    0:50   0.00   27.1    63    1.4   160     3.5   797.5    0.00 

Return to Steptoe Valley WMA graphs page.


Western Regional Climate Center,wrcc@dri.edu